Monroe, UT (84754)

1:16 AM MST on February 23, 2017 (GMT -0700)
Monroe Foothills | | Change Station
Active Advisory: Winter Weather Advisory

Elev 5483 ft 38.63 °N, 112.11 °W | Updated 8 seconds ago

Overcast
Overcast
24.8 °F
Feels Like 21 °F
N
3.4
Wind Variable Wind from ENE
Gusts 4.9 mph

Today
High -- | Low -- °F
--% Chance of Precip.
Yesterday
High -- | Low -- °F
Precip. -- in
Pressure 29.74 in
Visibility 10.0 miles
Clouds Few 12000 ft
Windchill 21 °F
Dew Point 24 °F
Humidity 96%
Rainfall 0.00 in
Snow Depth Not available.
7:08 AM 6:15 PM
Waning Crescent, 12% visible
METAR KMLF 230752Z AUTO 28008KT 10SM FEW120 M04/M06 A2977 RMK AO2 SLP071 T10391061
Pressure 29.74 in
Visibility 10.0 miles
Clouds Few 12000 ft
Windchill 21 °F
Dew Point 24 °F
Humidity 96%
Rainfall 0.00 in
Snow Depth Not available.
7:08 AM 6:15 PM
Waning Crescent, 12% visible
METAR KMLF 230752Z AUTO 28008KT 10SM FEW120 M04/M06 A2977 RMK AO2 SLP071 T10391061

Get Your Daily Forecast Email!

Thanks for signing up!

Be on the lookout for a verification email in your inbox.

You'll start receiving the daily forecast at 8 AM.

×

10-Day Weather Forecast

Almanac

Astronomy

Feb. 23, 2017 Rise Set
Actual Time
Civil Twilight
Nautical Twilight
Astronomical Twilight
Moon
Length of Visible Light
Length of Day
Tomorrow will be .
, % of the Moon is Illuminated

Today's Extremes

State Highs State Lows

Community

WunderPhotos

Upload Photos

1,962,540 photos uploaded!

WunderBlog® & News

Nearby

Air Quality

  Air Quality AQ Index Pollutant
Not available.

Snow Depth

Station Depth Elevation

Earthquake Activity

City Distance Mag. Time & Date
Minimum magnitude displayed is 2.5.

Coastal Water Temperatures

Place Temperature

Stations

Nearby Weather Stations

Station Location Temp. Windchill Dew Point Humidity Wind Precip. Elev Updated Type
                   

Watches & Warnings

Winter Weather Advisory
Issued: 10:23 PM MST Feb. 22, 2017 – National Weather Service

... Winter Weather Advisory remains in effect until 4 am MST
Thursday...

* affected area... west central and southwest Utah, the southern
mountains, along with the Sanpete and Sevier valleys.

* Snow accumulations... valley accumulation of 1 to 4 inches with
locally higher amounts along the I-15 corridor. For the
southern mountains, 3 to 6 inches are expected.

* Timing... snow will continue through late tonight before tapering
off.

* Impacts... winter driving conditions including snow covered roads
and reduced visibility can be expected along all area roadways
overnight, particularly along the I-15 corridor.

Precautionary/preparedness actions...

A Winter Weather Advisory for snow means that snow accumulations
will cause primarily travel difficulties. Be prepared for snow
covered roads. Use caution while driving.

For winter Road conditions from the Utah Department of
Transportation, visit
http://www.Udottraffic.Utah.Gov/roadweatherforecast.Aspx or dial
511.